»·PEaware :: JBU180 KLGB-KLAS

JBU180 :: KLGB-KLAS

FLIGHT INFORMATION

Flight Status: Arrived
Operator:
JetBlue Airways
More flights by this operator :: More flights under this callsign
Pilot: Henderson P. (1210)
Aircraft: AIRBUS A320
(A320)
More flights by this aircraft type
Origin: KLGB Long Beach
United States
Destination: KLAS McCarran Intl
United States
More flights between these airports :: More routes between these airports
Route: ZOOMM2 MISEN KEPEC6
File this flight plan on PilotEdge
Remarks:
Altitude:
(Current/Filed)
23,000ft
Speed:
(Current/Filed)
371kts
Departed: 17-Jun-19 06:25 PM
Arrived: 17-Jun-19 07:12 PM
Distance/Time
Traveled:
201nm/0:47
Distance/Time
To Go:
Arrived

Flight Plot

Page will automatically refresh every two minutes.

Flight plan parsing failed; only flown route is shown


Map Options




Map Legend


Flown Route
Filed Route
Departure Airport
Arrival Airport
Navaid (VOR, NDB)
Fix

Horizontal Profiles

Position Reports

Time Latitude Longitude Heading Altitude Ground
Speed
17-Jun-19 17:54 33.820679 -118.146306 90 74ft 0kts
17-Jun-19 17:55 33.820679 -118.146306 90 74ft 0kts
17-Jun-19 17:56 33.820679 -118.146306 90 74ft 0kts
17-Jun-19 17:57 33.820679 -118.146306 90 74ft 0kts
17-Jun-19 17:58 33.820679 -118.146306 90 74ft 0kts
17-Jun-19 17:59 33.820679 -118.146306 90 74ft 0kts
17-Jun-19 18:00 33.820679 -118.146306 90 74ft 0kts
17-Jun-19 18:01 33.820679 -118.146306 90 74ft 0kts
17-Jun-19 18:02 33.820679 -118.146306 90 74ft 0kts
17-Jun-19 18:03 33.820679 -118.146306 90 74ft 0kts
17-Jun-19 18:04 33.820679 -118.146306 90 74ft 0kts
17-Jun-19 18:05 33.820679 -118.146306 90 74ft 0kts
17-Jun-19 18:06 33.820679 -118.146306 90 74ft 0kts
17-Jun-19 18:07 33.820679 -118.146306 90 74ft 0kts
17-Jun-19 18:08 33.820679 -118.146306 90 74ft 0kts
17-Jun-19 18:09 33.820679 -118.146306 90 74ft 0kts
17-Jun-19 18:10 33.820679 -118.146406 91 74ft 2kts
17-Jun-19 18:11 33.820883 -118.147068 171 74ft 2kts
17-Jun-19 18:12 33.821020 -118.147077 179 74ft 0kts
17-Jun-19 18:13 33.821019 -118.147077 179 74ft 0kts
17-Jun-19 18:15 33.820970 -118.147077 179 74ft 1kts
17-Jun-19 18:16 33.819038 -118.147118 180 74ft 11kts
17-Jun-19 18:17 33.814903 -118.146013 135 74ft 19kts
17-Jun-19 18:18 33.810542 -118.140729 135 74ft 22kts
17-Jun-19 18:19 33.807833 -118.137601 165 74ft 1kts
17-Jun-19 18:20 33.807611 -118.137647 211 74ft 0kts
17-Jun-19 18:21 33.807610 -118.137648 211 74ft 0kts
17-Jun-19 18:22 33.807609 -118.137648 211 74ft 0kts
17-Jun-19 18:23 33.807609 -118.137649 211 74ft 0kts
17-Jun-19 18:24 33.807608 -118.137649 211 74ft 0kts
17-Jun-19 18:25 33.808328 -118.139950 314 74ft 50kts
17-Jun-19 18:26 33.835656 -118.175304 305 1418ft 167kts
17-Jun-19 18:27 33.825039 -118.227279 240 2954ft 202kts
17-Jun-19 18:28 33.830702 -118.293964 282 3006ft 207kts
17-Jun-19 18:29 33.843926 -118.360938 269 2990ft 205kts
17-Jun-19 18:30 33.802329 -118.397896 191 5248ft 213kts
17-Jun-19 18:31 33.752881 -118.357220 105 7140ft 276kts
17-Jun-19 18:32 33.768855 -118.279607 61 9616ft 292kts
17-Jun-19 18:33 33.807466 -118.189325 65 11269ft 341kts
17-Jun-19 18:33 33.843883 -118.098895 64 12445ft 377kts
17-Jun-19 18:35 33.897122 -117.967763 62 14737ft 396kts
17-Jun-19 18:36 33.975672 -117.880576 35 16602ft 410kts
17-Jun-19 18:36 34.048861 -117.816789 35 18136ft 419kts
17-Jun-19 18:37 34.137944 -117.725705 58 19788ft 437kts
17-Jun-19 18:39 34.218300 -117.584817 46 21694ft 448kts
17-Jun-19 18:39 34.284595 -117.487948 50 22883ft 458kts
17-Jun-19 18:40 34.356330 -117.380025 49 22952ft 457kts
17-Jun-19 18:41 34.432343 -117.266970 50 22922ft 457kts
17-Jun-19 18:42 34.511746 -117.146754 49 22936ft 456kts
17-Jun-19 18:43 34.592484 -117.027867 49 22949ft 456kts
17-Jun-19 18:44 34.673542 -116.909581 49 22919ft 455kts
17-Jun-19 18:45 34.754413 -116.791324 49 22860ft 455kts
17-Jun-19 18:46 34.835220 -116.672595 49 22830ft 455kts
17-Jun-19 18:47 34.929437 -116.571441 36 22827ft 452kts
17-Jun-19 18:48 35.028279 -116.475932 38 22836ft 452kts
17-Jun-19 18:49 35.124342 -116.377147 44 22846ft 452kts
17-Jun-19 18:50 35.211667 -116.266615 44 22850ft 451kts
17-Jun-19 18:51 35.295463 -116.161827 45 22093ft 404kts
17-Jun-19 18:52 35.372683 -116.064363 45 20582ft 394kts
17-Jun-19 18:53 35.447980 -115.969173 45 18518ft 385kts
17-Jun-19 18:54 35.521387 -115.876190 45 16616ft 373kts
17-Jun-19 18:55 35.592992 -115.785203 46 14592ft 369kts
17-Jun-19 18:56 35.662982 -115.696007 46 13081ft 344kts
17-Jun-19 18:57 35.725168 -115.616603 47 13034ft 312kts
17-Jun-19 18:58 35.799466 -115.570769 1 13050ft 315kts
17-Jun-19 18:59 35.885139 -115.568692 3 13047ft 315kts
17-Jun-19 19:00 35.970181 -115.552218 38 13035ft 313kts
17-Jun-19 19:01 36.005483 -115.456630 72 11848ft 301kts
17-Jun-19 19:02 36.030988 -115.363749 90 10958ft 279kts
17-Jun-19 19:03 36.028108 -115.265599 90 9103ft 293kts
17-Jun-19 19:04 36.027294 -115.172081 90 8431ft 255kts
17-Jun-19 19:05 36.026589 -115.086134 90 7250ft 236kts
17-Jun-19 19:06 36.026013 -115.011339 90 6210ft 210kts
17-Jun-19 19:07 36.060419 -114.971120 338 4676ft 199kts
17-Jun-19 19:08 36.073748 -115.021742 270 3879ft 150kts
17-Jun-19 19:09 36.073632 -115.072003 272 3056ft 146kts
17-Jun-19 19:10 36.073678 -115.123184 270 2277ft 148kts
17-Jun-19 19:11 36.074033 -115.153566 294 2195ft 36kts
17-Jun-19 19:12 36.076421 -115.157507 314 2195ft 15kts
17-Jun-19 19:13 36.078064 -115.153608 90 2195ft 23kts
17-Jun-19 19:14 36.077660 -115.144760 93 2195ft 26kts
17-Jun-19 19:15 36.080673 -115.142439 359 2195ft 18kts
17-Jun-19 19:16 36.084641 -115.140071 94 2195ft 13kts
17-Jun-19 19:17 36.085244 -115.138457 0 2195ft 0kts
17-Jun-19 19:18 36.085265 -115.138457 0 2195ft 0kts
17-Jun-19 19:19 36.085265 -115.138457 0 2195ft 0kts
17-Jun-19 19:20 36.085265 -115.138457 0 2195ft 0kts
17-Jun-19 19:21 36.085265 -115.138457 0 2195ft 0kts
17-Jun-19 19:22 36.085265 -115.138457 0 2195ft 0kts
17-Jun-19 19:23 36.085265 -115.138457 0 2195ft 0kts
17-Jun-19 19:24 36.085265 -115.138457 0 2195ft 0kts
17-Jun-19 19:25 36.085265 -115.138457 0 2195ft 0kts

Navigation Log

Ident Type
Flight plan parsing failed, navigation log unavailable